Kezdőlap
METAR-TAF:

METAR-TAF

Repülőterek :

Pszkov, Oroszország

földrajzi szélesség: 57-47-06N, földrajzi hosszúság: 028-23-54E, magasság: 47 m

Jelenlegi meteorológiai megfigyelések

A jelentés 35 perccel ezelõtt készült, 10:00 UTC
Északnyugati szél 6 kt, nyugat-délnyugati és észak-északkeleti között változik
Hőmérséklet 20°C
Páratartalom 26%
Légköri nyomás 1030 hPa

METAR: ULOO 231000Z 32003MPS 240V030 P5000 NSC 20/00 Q1030 R19/090070 NOSIG RMK QFE768

Idő: 13:35 (10:35 UTC)

Előrejelzés

A jelentés 2 órával és 36 perccel ezelõtt készült, 07:59 UTC
Az előrejelzés 23-én 09 óra UTC és 23-én 18 óra UTC között érvényes
Északnyugati szél 6 kt
Látótávolság 10 km, vagy több
felhőtlen 1500 m magasságban, és nincs gomolyfelhõ

TAF: ULOO 230759Z 2309/2318 32003MPS CAVOK

Meteorológiai megfigyelések és előrejelzések több, mint 4000 repülőtéren (METAR és TAF jelentéseket).

A térképen piros és sárga pontok jelzik az elérhető meteorológiai állomásokat.

Mozgassa az egeret a pont fölött, hogy megjelenjen az állomás neve.

Azután kattintson az időjárási megfigyelések és előrejelzések megtekintéséhez.

A térkép megváltoztatása: kattintson a fekete keresztel jelölt zöld gombra ráközelítéshez, a vonallal jelölt zöld gombra távolításhoz, vagy a zöld nyilakra a szomszédos térképek eléréséhez.


METAR-TAF: